Cannon Air Force Base
KCVS : now visible

Airfield :











YOU CAN JOIN US ON...

 
LOGIN :

Register | Disclaimer

   EN    FR    IT 

 









Legend :    VFR   Marginal VFR   IFR   Intensive IFR   Very Intensive IFR
Visi :
Ceiling :
>= 8 km
>= 3000ft
5 to 8 km
1000 to 3000 ft
1500m to 5 km
500 to 1000 ft
800 to 1500m
200 to 500 ft
< 800m
< 200 ft
Symbols :   Thunderstorms  Fog  Heavy snow  Heavy precipitations  Wind > 20 kt







- Airport Elevation : 4295 ft


KCVS - Cannon Air Force Base

CURRENT METAR :
  • 212058Z 12011KT 10SM BKN150 BKN170 23/17 A3002 RMK AO2A LTG DSNT NW-N AND E-SE SLP112 60001 T02330170 57016 $

EXPIRED METARs :
  • 211958Z 14016G25KT 8SM VCTS SCT027 BKN037 OVC100 22/15 A3004 RMK AO2A PK WND 10027/52 RAB02E25DZB31E40 SLP122 P0001 T02210150 $
  • 211938Z 13016G20KT 10SM -DZ VCTS SCT037 BKN045 OVC100 24/17 A3004 RMK AO2A RAB02E25DZB31 SLP119 $
  • 211858Z 18013KT 10SM SCT033 BKN095 BKN120 26/18 A3004 RMK AO2A LTG DSNT S SLP117 T02580179 $

TAF TAF KCVS
Valid from the 21 at 18:00 until the 23 at 00:00 UTC


211806Z 2118/2224 18006KT 9999 BKN030 OVC150 QNH3007INS
BECMG 2120/2121 19012G20KT 9999 VCTS BKN060CB BKN120 QNH3005INS
BECMG 2123/2124 VRB15G25KT 9999 -TSRA BKN060CB BKN150 QNH3003INS
BECMG 2202/2203 19010KT 8000 BR BKN015 BKN070 QNH3000INS
BECMG 2208/2209 21010KT 9999 NSW FEW015 BKN060 QNH3006INS
BECMG 2215/2216 04012G20KT 9999 SCT060 QNH3012INS
BECMG 2221/2222 16012G20KT 9999 FEW060 QNH3006INS TX28/2121Z TN18/2212Z
No reported NOTAMs for that airfield.



MET'MAP, your aeronautical weather chart ! - Copyright ORBIFLY December 2007 - Disclaimer

ORBIFLY MET'MAP TEAM :

Programming & Development : Alexandra Zaïnal
Concept & Development : Baudouin d'Aumeries
Co-Development & Prog : Marc-Olivier Méhu
Technical & hardware support : Manuel Goepfert

Contact : metmap@orbifly.com




SOURCES & CREDITS :

   NOAA       Earth
Advisory